createdAt,value
2022-10-16T00:01:19.214Z,5.00
2022-10-16T00:03:47.603Z,4.80
2022-10-16T00:06:33.492Z,4.72
2022-10-16T00:09:01.230Z,4.93
2022-10-16T00:11:31.432Z,4.80
2022-10-16T00:14:00.780Z,4.87
2022-10-16T00:16:29.413Z,5.20
2022-10-16T00:18:57.136Z,4.87
2022-10-16T00:21:27.406Z,5.00
2022-10-16T00:24:13.489Z,4.78
2022-10-16T00:26:41.023Z,4.85
2022-10-16T00:29:09.815Z,4.90
2022-10-16T00:31:37.251Z,4.95
2022-10-16T00:34:04.626Z,4.90
2022-10-16T00:36:33.100Z,4.43
2022-10-16T00:39:02.185Z,5.55
2022-10-16T00:41:31.050Z,5.18
2022-10-16T00:44:01.084Z,4.82
2022-10-16T00:46:41.471Z,4.97
2022-10-16T00:49:14.472Z,4.80
2022-10-16T00:51:44.703Z,4.10
2022-10-16T00:54:23.032Z,4.90
2022-10-16T00:56:51.260Z,5.12
2022-10-16T00:59:26.427Z,4.53
2022-10-16T01:01:54.926Z,4.80
2022-10-16T01:04:23.383Z,4.60
2022-10-16T01:07:05.979Z,4.97
2022-10-16T01:09:53.687Z,5.37
2022-10-16T01:12:38.641Z,5.20
2022-10-16T01:15:11.995Z,5.10
2022-10-16T01:17:45.033Z,4.60
2022-10-16T01:20:22.455Z,5.20
2022-10-16T01:23:09.534Z,4.70
2022-10-16T01:25:53.450Z,4.70
2022-10-16T01:28:24.008Z,4.68
2022-10-16T01:30:54.043Z,5.37
2022-10-16T01:33:24.840Z,5.47
2022-10-16T01:36:04.572Z,5.07
2022-10-16T01:38:36.238Z,5.15
2022-10-16T01:41:11.726Z,5.00
2022-10-16T01:43:42.570Z,5.40
2022-10-16T01:46:10.891Z,5.43
2022-10-16T01:48:39.149Z,5.87
2022-10-16T01:51:11.887Z,5.35
2022-10-16T01:53:41.405Z,5.80
2022-10-16T01:56:10.997Z,5.45
2022-10-16T01:58:47.270Z,5.40
2022-10-16T02:03:51.380Z,4.85
2022-10-16T02:06:18.732Z,5.05
2022-10-16T02:08:46.083Z,5.30
2022-10-16T02:11:13.727Z,5.50
2022-10-16T02:13:50.914Z,5.85
2022-10-16T02:16:18.644Z,5.10
2022-10-16T02:18:46.062Z,5.43
2022-10-16T02:21:31.405Z,5.12
2022-10-16T02:24:04.356Z,4.75
2022-10-16T02:26:37.620Z,5.30
2022-10-16T02:29:09.371Z,5.35
2022-10-16T02:31:40.069Z,5.47
2022-10-16T02:34:08.092Z,5.22
2022-10-16T02:36:35.957Z,5.57
2022-10-16T02:39:04.885Z,5.30
2022-10-16T02:41:33.088Z,5.35
2022-10-16T02:44:00.662Z,5.22
2022-10-16T02:46:28.020Z,5.65
2022-10-16T02:48:55.603Z,5.28
2022-10-16T02:51:22.953Z,5.18
2022-10-16T02:53:50.329Z,5.05
2022-10-16T02:58:50.130Z,5.75
2022-10-16T03:01:17.948Z,5.45
2022-10-16T03:03:45.354Z,6.22
2022-10-16T03:06:12.668Z,6.40
2022-10-16T03:08:40.279Z,6.12
2022-10-16T03:11:07.634Z,5.97
2022-10-16T03:13:34.971Z,6.28
2022-10-16T03:16:02.548Z,6.78
2022-10-16T03:18:29.857Z,6.57
2022-10-16T03:20:57.218Z,6.18
2022-10-16T03:23:25.076Z,6.10
2022-10-16T03:25:52.490Z,6.47
2022-10-16T03:28:19.897Z,6.90
2022-10-16T03:30:47.678Z,6.20
2022-10-16T03:33:15.086Z,6.62
2022-10-16T03:35:42.419Z,6.20
2022-10-16T03:38:10.009Z,5.85
2022-10-16T03:40:37.391Z,5.30
2022-10-16T03:43:04.887Z,6.55
2022-10-16T03:45:32.512Z,5.53
2022-10-16T03:47:59.835Z,5.87
2022-10-16T03:50:27.173Z,5.80
2022-10-16T03:52:54.757Z,6.00
2022-10-16T03:55:22.138Z,6.22
2022-10-16T03:57:49.448Z,6.28
2022-10-16T04:00:17.082Z,5.15
2022-10-16T04:05:17.004Z,5.80
2022-10-16T04:07:44.605Z,5.50
2022-10-16T04:10:11.916Z,5.32
2022-10-16T04:12:39.277Z,6.43
2022-10-16T04:15:07.231Z,6.87
2022-10-16T04:17:34.541Z,6.65
2022-10-16T04:20:01.878Z,6.10
2022-10-16T04:22:29.477Z,6.12
2022-10-16T04:24:56.849Z,6.43
2022-10-16T04:27:24.464Z,6.40
2022-10-16T04:29:52.246Z,5.82
2022-10-16T04:32:19.581Z,6.32
2022-10-16T04:34:46.905Z,5.47
2022-10-16T04:37:14.501Z,6.07
2022-10-16T04:39:41.879Z,5.97
2022-10-16T04:42:09.459Z,5.95
2022-10-16T04:44:37.048Z,5.85
2022-10-16T04:47:05.639Z,6.22
2022-10-16T04:49:32.960Z,6.15
2022-10-16T04:52:00.561Z,5.95
2022-10-16T04:54:27.904Z,5.97
2022-10-16T04:56:55.324Z,5.57
2022-10-16T04:59:23.278Z,5.70
2022-10-16T05:01:50.703Z,5.40
2022-10-16T05:04:18.082Z,6.03
2022-10-16T05:06:45.680Z,5.60
2022-10-16T05:09:13.011Z,6.07
2022-10-16T05:11:40.361Z,5.97
2022-10-16T05:14:08.051Z,5.68
2022-10-16T05:16:35.441Z,5.72
2022-10-16T05:19:26.277Z,6.20
2022-10-16T05:21:50.403Z,5.93
2022-10-16T05:24:17.723Z,5.90
2022-10-16T05:26:45.060Z,5.78
2022-10-16T05:29:13.006Z,5.40
2022-10-16T05:31:40.368Z,6.03
2022-10-16T05:34:07.690Z,6.15
2022-10-16T05:36:35.522Z,6.35
2022-10-16T05:39:03.023Z,6.28
2022-10-16T05:41:30.340Z,6.28
2022-10-16T05:43:57.914Z,6.28
2022-10-16T05:46:25.272Z,6.30
2022-10-16T05:48:54.244Z,6.50
2022-10-16T05:51:21.922Z,6.53
2022-10-16T05:53:49.229Z,6.68
2022-10-16T05:56:16.919Z,6.05
2022-10-16T05:58:45.561Z,6.90
2022-10-16T06:01:15.513Z,6.35
2022-10-16T06:03:43.194Z,6.35
2022-10-16T06:06:12.492Z,6.32
2022-10-16T06:08:40.734Z,7.32
2022-10-16T06:11:11.100Z,6.28
2022-10-16T06:13:38.463Z,6.37
2022-10-16T06:16:06.225Z,6.18
2022-10-16T06:18:33.869Z,5.62
2022-10-16T06:21:01.278Z,5.37
2022-10-16T06:23:30.025Z,5.75
2022-10-16T06:26:05.981Z,5.82
2022-10-16T06:28:33.928Z,5.82
2022-10-16T06:31:05.609Z,5.07
2022-10-16T06:33:36.376Z,5.30
2022-10-16T06:36:09.254Z,5.22
2022-10-16T06:38:36.971Z,5.25
2022-10-16T06:41:05.561Z,5.55
2022-10-16T06:43:33.326Z,5.30
2022-10-16T06:46:01.334Z,5.30
2022-10-16T06:48:32.155Z,5.10
2022-10-16T06:51:00.882Z,5.18
2022-10-16T06:53:39.587Z,5.50
2022-10-16T06:56:17.205Z,5.35
2022-10-16T06:58:44.981Z,5.60
2022-10-16T07:01:13.274Z,5.60
2022-10-16T07:03:42.853Z,5.53
2022-10-16T07:06:13.438Z,5.50
2022-10-16T07:08:42.481Z,5.05
2022-10-16T07:11:12.884Z,5.53
2022-10-16T07:13:41.499Z,5.53
2022-10-16T07:16:10.203Z,5.50
2022-10-16T07:18:39.963Z,5.87
2022-10-16T07:21:08.725Z,5.68
2022-10-16T07:23:36.051Z,5.85
2022-10-16T07:26:04.842Z,5.43
2022-10-16T07:28:33.239Z,7.47
2022-10-16T07:31:08.818Z,11.63
2022-10-16T07:33:36.439Z,7.10
2022-10-16T07:36:04.032Z,15.48
2022-10-16T07:38:32.817Z,10.35
2022-10-16T07:41:01.933Z,5.47
2022-10-16T07:43:29.461Z,6.68
2022-10-16T07:45:58.300Z,5.50
2022-10-16T07:48:29.751Z,5.80
2022-10-16T07:51:05.548Z,5.75
2022-10-16T07:53:33.972Z,5.62
2022-10-16T07:56:06.847Z,5.65
2022-10-16T07:58:35.360Z,5.70
2022-10-16T08:01:06.296Z,5.43
2022-10-16T08:03:34.220Z,5.90
2022-10-16T08:06:01.842Z,5.50
2022-10-16T08:08:29.825Z,5.85
2022-10-16T08:10:57.656Z,5.53
2022-10-16T08:13:24.984Z,5.60
2022-10-16T08:15:52.319Z,5.80
2022-10-16T08:18:19.904Z,5.65
2022-10-16T08:20:47.234Z,6.00
2022-10-16T08:23:15.054Z,5.40
2022-10-16T08:25:42.768Z,5.37
2022-10-16T08:28:11.330Z,5.28
2022-10-16T08:30:38.726Z,5.80
2022-10-16T08:33:07.479Z,5.35
2022-10-16T08:35:34.804Z,5.30
2022-10-16T08:38:04.810Z,5.72
2022-10-16T08:40:34.369Z,5.87
2022-10-16T08:43:20.422Z,5.37
2022-10-16T08:46:20.233Z,5.68
2022-10-16T08:48:52.895Z,4.57
2022-10-16T08:51:33.265Z,5.37
2022-10-16T08:54:07.203Z,5.28
2022-10-16T08:56:34.829Z,5.93
2022-10-16T08:59:03.226Z,5.40
2022-10-16T09:01:39.613Z,6.03
2022-10-16T09:04:19.894Z,5.22
2022-10-16T09:06:49.614Z,5.05
2022-10-16T09:09:32.471Z,5.50
2022-10-16T09:12:22.035Z,5.35
2022-10-16T09:15:14.108Z,5.12
2022-10-16T09:17:59.458Z,4.85
2022-10-16T09:20:42.260Z,5.62
2022-10-16T09:23:15.751Z,5.28
2022-10-16T09:25:48.716Z,5.47
2022-10-16T09:28:18.031Z,5.60
2022-10-16T09:30:46.459Z,5.30
2022-10-16T09:33:14.954Z,5.40
2022-10-16T09:35:45.677Z,5.43
2022-10-16T09:38:34.017Z,5.82
2022-10-16T09:41:03.825Z,5.43
2022-10-16T09:44:02.795Z,5.95
2022-10-16T09:46:32.742Z,5.55
2022-10-16T09:49:02.893Z,5.78
2022-10-16T09:51:38.158Z,5.60
2022-10-16T09:54:20.427Z,5.35
2022-10-16T09:56:52.761Z,5.72
2022-10-16T09:59:25.049Z,5.62
2022-10-16T10:01:56.186Z,5.12
2022-10-16T10:04:25.073Z,5.43
2022-10-16T10:06:54.094Z,5.70
2022-10-16T10:09:29.282Z,6.20
2022-10-16T10:12:04.309Z,5.03
2022-10-16T10:14:53.316Z,5.68
2022-10-16T10:17:23.469Z,5.18
2022-10-16T10:20:02.308Z,5.45
2022-10-16T10:22:46.593Z,4.70
2022-10-16T10:25:13.845Z,5.32
2022-10-16T10:27:47.369Z,5.30
2022-10-16T10:30:38.517Z,5.60
2022-10-16T10:33:15.170Z,5.12
2022-10-16T10:35:59.256Z,4.45
2022-10-16T10:38:35.689Z,5.12
2022-10-16T10:41:34.435Z,4.68
2022-10-16T10:44:26.353Z,4.68
2022-10-16T10:47:02.294Z,4.68
2022-10-16T10:49:52.902Z,4.97
2022-10-16T10:52:47.989Z,4.85
2022-10-16T10:55:46.735Z,4.62
2022-10-16T10:58:26.171Z,4.43
2022-10-16T11:01:12.794Z,4.87
2022-10-16T11:03:59.022Z,4.85
2022-10-16T11:06:47.324Z,46.70
2022-10-16T11:09:21.863Z,5.10
2022-10-16T11:11:55.938Z,4.45
2022-10-16T11:14:32.947Z,4.45
2022-10-16T11:17:05.631Z,4.37
2022-10-16T11:19:41.320Z,4.22
2022-10-16T11:22:47.557Z,4.57
2022-10-16T11:25:22.313Z,4.00
2022-10-16T11:28:11.115Z,3.67
2022-10-16T11:30:47.234Z,3.58
2022-10-16T11:33:41.745Z,3.40
2022-10-16T11:36:21.140Z,3.43
2022-10-16T11:38:52.234Z,3.55
2022-10-16T11:41:27.652Z,3.58
2022-10-16T11:44:32.942Z,3.67
2022-10-16T11:50:18.857Z,3.50
2022-10-16T11:52:51.922Z,3.30
2022-10-16T11:55:22.348Z,4.20
2022-10-16T11:57:53.193Z,3.20
2022-10-16T12:00:20.634Z,3.70
2022-10-16T12:03:21.014Z,3.30
2022-10-16T12:06:26.119Z,3.87
2022-10-16T12:08:54.886Z,3.33
2022-10-16T12:11:37.082Z,3.47
2022-10-16T12:14:08.273Z,3.47
2022-10-16T12:16:38.734Z,3.25
2022-10-16T12:19:17.080Z,3.67
2022-10-16T12:21:45.211Z,3.17
2022-10-16T12:24:35.435Z,3.45
2022-10-16T12:27:03.713Z,3.20
2022-10-16T12:29:38.119Z,3.28
2022-10-16T12:32:41.836Z,3.35
2022-10-16T12:35:19.245Z,3.47
2022-10-16T12:37:46.722Z,3.45
2022-10-16T12:40:23.952Z,3.47
2022-10-16T12:42:51.498Z,3.60
2022-10-16T12:45:24.957Z,3.37
2022-10-16T12:47:54.911Z,3.55
2022-10-16T12:50:37.456Z,3.40
2022-10-16T12:53:19.525Z,3.35
2022-10-16T12:56:02.828Z,3.37
2022-10-16T12:59:05.346Z,3.60
2022-10-16T13:02:03.578Z,3.25
2022-10-16T13:04:58.080Z,3.33
2022-10-16T13:07:31.363Z,3.10
2022-10-16T13:10:03.919Z,2.97
2022-10-16T13:12:41.752Z,3.40
2022-10-16T13:15:30.997Z,3.30
2022-10-16T13:18:41.777Z,3.10
2022-10-16T13:21:33.435Z,3.28
2022-10-16T13:24:09.697Z,3.15
2022-10-16T13:26:46.224Z,3.20
2022-10-16T13:29:15.345Z,3.12
2022-10-16T13:31:44.011Z,3.45
2022-10-16T13:34:16.820Z,3.00
2022-10-16T13:36:52.271Z,3.30
2022-10-16T13:39:28.175Z,3.25
2022-10-16T13:42:06.392Z,3.22
2022-10-16T13:44:51.117Z,3.00
2022-10-16T13:47:24.776Z,3.12
2022-10-16T13:50:01.671Z,3.03
2022-10-16T13:52:29.618Z,3.60
2022-10-16T13:55:00.932Z,3.08
2022-10-16T13:57:29.923Z,3.30
2022-10-16T13:59:57.242Z,2.85
2022-10-16T14:02:31.517Z,2.97
2022-10-16T14:04:59.784Z,3.10
2022-10-16T14:07:34.186Z,3.28
2022-10-16T14:10:07.461Z,3.35
2022-10-16T14:12:35.593Z,3.60
2022-10-16T14:15:03.822Z,3.30
2022-10-16T14:17:34.166Z,2.92
2022-10-16T14:20:06.635Z,3.10
2022-10-16T14:22:36.369Z,3.70
2022-10-16T14:25:20.807Z,3.35
2022-10-16T14:28:17.593Z,3.20
2022-10-16T14:30:56.792Z,3.20
2022-10-16T14:33:30.765Z,2.65
2022-10-16T14:36:10.180Z,3.00
2022-10-16T14:38:39.356Z,2.95
2022-10-16T14:41:07.432Z,3.30
2022-10-16T14:43:35.572Z,3.37
2022-10-16T14:46:06.612Z,3.85
2022-10-16T14:48:34.020Z,3.75
2022-10-16T14:51:01.411Z,2.90
2022-10-16T14:53:29.020Z,4.28
2022-10-16T14:55:56.353Z,2.95
2022-10-16T14:58:24.525Z,3.35
2022-10-16T15:00:52.099Z,3.20
2022-10-16T15:03:19.477Z,3.08
2022-10-16T15:05:46.823Z,3.25
2022-10-16T15:08:14.445Z,3.10
2022-10-16T15:10:44.171Z,3.28
2022-10-16T15:13:14.063Z,2.97
2022-10-16T15:15:44.882Z,3.50
2022-10-16T15:18:12.399Z,3.25
2022-10-16T15:20:40.425Z,3.12
2022-10-16T15:23:16.618Z,3.28
2022-10-16T15:25:49.515Z,3.17
2022-10-16T15:28:17.889Z,3.58
2022-10-16T15:30:48.283Z,3.97
2022-10-16T15:33:21.135Z,4.28
2022-10-16T15:35:52.813Z,3.65
2022-10-16T15:38:22.955Z,3.80
2022-10-16T15:40:50.901Z,4.12
2022-10-16T15:43:19.771Z,4.10
2022-10-16T15:46:07.690Z,3.53
2022-10-16T15:48:35.350Z,3.58
2022-10-16T15:51:06.652Z,3.50
2022-10-16T15:53:35.199Z,3.83
2022-10-16T15:56:08.079Z,3.75
2022-10-16T15:58:35.413Z,4.28
2022-10-16T16:01:04.588Z,3.80
2022-10-16T16:03:32.737Z,6.32
2022-10-16T16:06:05.464Z,5.12
2022-10-16T16:08:34.029Z,5.03
2022-10-16T16:11:03.184Z,4.32
2022-10-16T16:13:30.542Z,5.32
2022-10-16T16:15:58.115Z,4.60
2022-10-16T16:18:25.509Z,4.45
2022-10-16T16:20:53.308Z,4.20
2022-10-16T16:23:21.067Z,4.72
2022-10-16T16:26:26.901Z,5.47
2022-10-16T16:28:55.341Z,7.37
2022-10-16T16:31:25.946Z,8.73
2022-10-16T16:33:54.276Z,10.20
2022-10-16T16:36:21.711Z,15.10
2022-10-16T16:38:49.119Z,12.02
2022-10-16T16:41:21.815Z,15.38
2022-10-16T16:43:49.767Z,12.05
2022-10-16T16:46:17.427Z,10.50
2022-10-16T16:48:45.460Z,8.82
2022-10-16T16:51:20.294Z,9.30
2022-10-16T16:53:52.516Z,9.48
2022-10-16T16:56:21.354Z,11.12
2022-10-16T16:58:50.734Z,12.85
2022-10-16T17:01:20.199Z,14.63
2022-10-16T17:03:51.711Z,17.50
2022-10-16T17:06:24.503Z,29.37
2022-10-16T17:08:52.526Z,30.23
2022-10-16T17:11:23.033Z,25.98
2022-10-16T17:13:55.533Z,23.80
2022-10-16T17:16:27.765Z,17.67
2022-10-16T17:18:55.637Z,20.33
2022-10-16T17:21:23.649Z,18.65
2022-10-16T17:23:53.505Z,19.05
2022-10-16T17:26:21.446Z,19.00
2022-10-16T17:28:53.526Z,18.17
2022-10-16T17:31:24.294Z,19.25
2022-10-16T17:33:52.441Z,17.90
2022-10-16T17:36:22.512Z,21.92
2022-10-16T17:38:50.984Z,24.42
2022-10-16T17:41:24.041Z,25.77
2022-10-16T17:43:52.949Z,24.27
2022-10-16T17:46:22.367Z,22.80
2022-10-16T17:48:52.705Z,22.60
2022-10-16T17:51:24.051Z,22.08
2022-10-16T17:53:57.751Z,21.52
2022-10-16T17:56:26.774Z,20.30
2022-10-16T17:58:56.505Z,20.30
2022-10-16T18:01:27.094Z,20.35
2022-10-16T18:03:57.888Z,21.73
2022-10-16T18:06:26.298Z,21.95
2022-10-16T18:08:55.565Z,21.02
2022-10-16T18:11:23.769Z,22.30
2022-10-16T18:13:55.448Z,22.27
2022-10-16T18:16:24.688Z,23.35
2022-10-16T18:18:52.772Z,22.77
2022-10-16T18:21:20.960Z,22.90
2022-10-16T18:23:51.875Z,24.25
2022-10-16T18:26:21.142Z,24.58
2022-10-16T18:28:51.258Z,27.75
2022-10-16T18:31:22.204Z,30.62
2022-10-16T18:33:52.929Z,36.20
2022-10-16T18:36:23.372Z,72.20
2022-10-16T18:38:51.546Z,56.40
2022-10-16T18:41:19.653Z,46.30
2022-10-16T18:43:47.838Z,44.63
2022-10-16T18:46:21.889Z,39.53
2022-10-16T18:48:51.720Z,34.47
2022-10-16T18:51:28.047Z,31.70
2022-10-16T18:54:03.484Z,29.60
2022-10-16T18:56:32.631Z,28.62
2022-10-16T18:59:04.525Z,24.60
2022-10-16T19:01:35.190Z,25.02
2022-10-16T19:04:10.172Z,22.80
2022-10-16T19:06:43.855Z,22.77
2022-10-16T19:09:12.853Z,21.62
2022-10-16T19:11:42.022Z,20.20
2022-10-16T19:14:12.029Z,17.60
2022-10-16T19:16:40.460Z,17.73
2022-10-16T19:19:15.377Z,18.30
2022-10-16T19:24:15.044Z,17.02
2022-10-16T19:26:43.724Z,18.98
2022-10-16T19:29:11.651Z,18.25
2022-10-16T19:31:39.245Z,16.92
2022-10-16T19:34:07.685Z,18.35
2022-10-16T19:36:37.299Z,17.67
2022-10-16T19:39:15.057Z,16.27
2022-10-16T19:41:42.939Z,15.52
2022-10-16T19:44:13.153Z,15.27
2022-10-16T19:46:40.924Z,12.98
2022-10-16T19:49:11.053Z,13.30
2022-10-16T19:51:39.177Z,13.65
2022-10-16T19:54:09.233Z,13.27
2022-10-16T19:56:37.515Z,12.20
2022-10-16T19:59:06.274Z,14.77
2022-10-16T20:01:34.318Z,14.32
2022-10-16T20:04:04.878Z,15.57
2022-10-16T20:06:32.472Z,16.08
2022-10-16T20:09:00.169Z,14.87
2022-10-16T20:11:30.412Z,16.05
2022-10-16T20:13:58.290Z,16.30
2022-10-16T20:16:27.101Z,15.65
2022-10-16T20:18:55.318Z,17.55
2022-10-16T20:21:30.057Z,18.35
2022-10-16T20:24:00.134Z,17.08
2022-10-16T20:26:27.653Z,17.52
2022-10-16T20:28:55.368Z,16.60
2022-10-16T20:31:26.798Z,17.10
2022-10-16T20:33:56.835Z,17.05
2022-10-16T20:36:25.939Z,16.80
2022-10-16T20:38:53.488Z,16.10
2022-10-16T20:41:21.049Z,17.50
2022-10-16T20:43:50.058Z,19.35
2022-10-16T20:46:19.891Z,19.42
2022-10-16T20:48:47.473Z,16.08
2022-10-16T20:51:20.519Z,15.38
2022-10-16T20:53:51.708Z,17.85
2022-10-16T20:56:19.299Z,19.45
2022-10-16T20:58:46.607Z,16.87
2022-10-16T21:01:16.336Z,17.27
2022-10-16T21:03:44.781Z,15.75
2022-10-16T21:06:12.271Z,14.65
2022-10-16T21:08:41.248Z,14.85
2022-10-16T21:11:17.980Z,13.70
2022-10-16T21:13:45.872Z,14.27
2022-10-16T21:16:14.816Z,12.90
2022-10-16T21:18:44.692Z,13.00
2022-10-16T21:21:30.850Z,13.68
2022-10-16T21:23:59.160Z,13.27
2022-10-16T21:26:27.757Z,13.40
2022-10-16T21:28:59.996Z,13.75
2022-10-16T21:31:28.079Z,14.27
2022-10-16T21:33:56.553Z,14.55
2022-10-16T21:36:26.255Z,17.48
2022-10-16T21:38:54.469Z,18.85
2022-10-16T21:41:26.995Z,18.08
2022-10-16T21:43:56.156Z,15.60
2022-10-16T21:46:25.862Z,13.38
2022-10-16T21:48:54.438Z,13.38
2022-10-16T21:51:51.675Z,14.57
2022-10-16T21:54:21.196Z,15.57
2022-10-16T21:56:48.860Z,14.70
2022-10-16T21:59:16.397Z,14.40
2022-10-16T22:01:43.974Z,13.80
2022-10-16T22:04:12.736Z,12.68
2022-10-16T22:06:40.507Z,12.00
2022-10-16T22:09:08.670Z,11.38
2022-10-16T22:11:37.598Z,12.35
2022-10-16T22:14:07.284Z,13.38
2022-10-16T22:16:34.692Z,11.90
2022-10-16T22:19:03.720Z,12.98
2022-10-16T22:21:32.410Z,13.70
2022-10-16T22:24:00.602Z,14.05
2022-10-16T22:26:28.277Z,13.77
2022-10-16T22:28:56.148Z,14.07
2022-10-16T22:31:23.957Z,13.95
2022-10-16T22:33:58.824Z,13.93
2022-10-16T22:36:26.802Z,13.68
2022-10-16T22:38:54.668Z,13.13
2022-10-16T22:41:22.541Z,14.25
2022-10-16T22:43:50.233Z,16.62
2022-10-16T22:46:20.209Z,15.63
2022-10-16T22:48:47.538Z,15.55
2022-10-16T22:51:16.897Z,15.57
2022-10-16T22:53:46.570Z,15.65
2022-10-16T22:56:15.396Z,13.85
2022-10-16T22:58:42.868Z,13.32
2022-10-16T23:01:32.253Z,13.13
2022-10-16T23:04:01.508Z,13.15
2022-10-16T23:06:29.593Z,12.05
2022-10-16T23:08:58.819Z,12.23
2022-10-16T23:11:27.319Z,12.15
2022-10-16T23:13:55.154Z,12.23
2022-10-16T23:16:22.985Z,11.95
2022-10-16T23:18:50.768Z,11.18
2022-10-16T23:21:21.380Z,10.85
2022-10-16T23:23:49.043Z,9.77
2022-10-16T23:26:19.053Z,10.27
2022-10-16T23:28:46.988Z,9.55
2022-10-16T23:31:15.079Z,8.95
2022-10-16T23:33:42.937Z,8.88
2022-10-16T23:36:13.008Z,8.82
2022-10-16T23:38:40.573Z,9.48
2022-10-16T23:41:09.657Z,9.25
2022-10-16T23:43:37.289Z,9.20
2022-10-16T23:46:05.990Z,8.90
2022-10-16T23:48:33.396Z,8.90
2022-10-16T23:51:01.244Z,9.27
2022-10-16T23:53:28.551Z,9.55
2022-10-16T23:55:56.052Z,9.55
2022-10-16T23:58:24.372Z,9.02
